Time;durP1;ratioP1;P1;durP2;ratioP2;P2;SDS_P1;SDS_P2;PMS_P1;PMS_P2;Temp;Humidity;BMP_temperature;BMP_pressure;BME280_temperature;BME280_humidity;BME280_pressure;Samples;Min_cycle;Max_cycle;Signal;HPM_P1;HPM_P2
2023/07/01 00:00:33;;;;;;;;;;;21.80;87.40;;;;;;5116660;28;19985;-64
2023/07/01 00:02:59;;;;;;;;;;;21.80;87.40;;;;;;5116899;28;19988;-64
2023/07/01 00:05:24;;;;;;;;;;;21.70;86.90;;;;;;5116949;28;20030;-62
2023/07/01 00:07:50;;;;;;;;;;;21.70;87.70;;;;;;5116839;28;19984;-62
2023/07/01 00:10:15;;;;;;;;;;;21.60;88.40;;;;;;5116775;28;20011;-62
2023/07/01 00:12:41;;;;;;;;;;;21.60;89.70;;;;;;5116770;28;19989;-63
2023/07/01 00:15:06;;;;;;;;;;;21.50;90.00;;;;;;5116581;28;20019;-64
2023/07/01 00:17:32;;;;;;;;;;;21.50;90.50;;;;;;5116539;28;19985;-63
2023/07/01 00:19:58;;;;;;;;;;;21.50;90.60;;;;;;5116711;28;19985;-64
2023/07/01 00:22:23;;;;;;;;;;;21.40;90.90;;;;;;5116602;28;20016;-63
2023/07/01 00:24:49;;;;;;;;;;;21.40;91.10;;;;;;5116671;28;20016;-64
2023/07/01 00:27:14;;;;;;;;;;;21.30;91.40;;;;;;5116568;28;20354;-64
2023/07/01 00:29:40;;;;;;;;;;;21.30;91.40;;;;;;5116530;28;20405;-64
2023/07/01 00:32:06;;;;;;;;;;;21.30;91.10;;;;;;5116411;28;20405;-63
2023/07/01 00:34:32;;;;;;;;;;;21.30;91.00;;;;;;5116414;28;20008;-63
2023/07/01 00:36:58;;;;;;;;;;;21.30;91.20;;;;;;5116407;28;19992;-63
2023/07/01 00:39:23;;;;;;;;;;;21.30;90.90;;;;;;5116413;28;20355;-62
2023/07/01 00:41:55;;;;;;;;;;;21.30;90.50;;;;;;5116305;28;20344;-63
2023/07/01 00:44:21;;;;;;;;;;;21.30;90.50;;;;;;5116614;28;20330;-64
2023/07/01 00:46:46;;;;;;;;;;;21.30;90.60;;;;;;5115650;28;20074;-62
2023/07/01 00:49:12;;;;;;;;;;;21.20;90.70;;;;;;5116381;28;19988;-62
2023/07/01 00:51:38;;;;;;;;;;;21.20;90.50;;;;;;5116071;28;20367;-63
2023/07/01 00:54:03;;;;;;;;;;;21.20;90.80;;;;;;5115825;28;20038;-63
2023/07/01 00:56:29;;;;;;;;;;;21.10;90.70;;;;;;5116041;28;20018;-62
2023/07/01 00:58:55;;;;;;;;;;;21.10;91.00;;;;;;5116015;28;19984;-63
2023/07/01 01:01:24;;;;;;;;;;;21.10;90.90;;;;;;5115615;28;19985;-64
2023/07/01 01:03:59;;;;;;;;;;;21.00;91.50;;;;;;5115857;28;20447;-64
2023/07/01 01:06:33;;;;;;;;;;;21.00;91.40;;;;;;5116073;28;19992;-63
2023/07/01 01:09:17;;;;;;;;;;;21.00;91.50;;;;;;5116016;28;19996;-63
2023/07/01 01:11:44;;;;;;;;;;;20.90;91.20;;;;;;5114683;28;19989;-64
2023/07/01 01:14:11;;;;;;;;;;;20.80;91.40;;;;;;5115726;28;19997;-62
2023/07/01 01:16:38;;;;;;;;;;;20.90;91.30;;;;;;5115428;28;20028;-62
2023/07/01 01:19:07;;;;;;;;;;;20.80;91.30;;;;;;5115533;28;20034;-62
2023/07/01 01:21:34;;;;;;;;;;;20.80;91.20;;;;;;5115443;28;19988;-65
2023/07/01 01:24:03;;;;;;;;;;;20.80;91.40;;;;;;5115390;28;20004;-64
2023/07/01 01:26:32;;;;;;;;;;;20.70;91.40;;;;;;5115408;28;20393;-64
2023/07/01 01:28:57;;;;;;;;;;;20.70;91.40;;;;;;5115470;28;19995;-63
2023/07/01 01:31:23;;;;;;;;;;;20.70;91.20;;;;;;5115015;28;19985;-63
2023/07/01 01:33:48;;;;;;;;;;;20.70;91.40;;;;;;5115251;28;19997;-65
2023/07/01 01:36:29;;;;;;;;;;;20.70;92.00;;;;;;5115010;28;20056;-62
2023/07/01 01:38:57;;;;;;;;;;;20.60;91.90;;;;;;5115435;28;20339;-63
2023/07/01 01:41:27;;;;;;;;;;;20.70;92.00;;;;;;5115026;28;19984;-62
2023/07/01 01:44:01;;;;;;;;;;;20.60;92.40;;;;;;5115066;28;19985;-64
2023/07/01 01:46:27;;;;;;;;;;;20.60;92.50;;;;;;5114629;28;20030;-63
2023/07/01 01:48:54;;;;;;;;;;;20.60;92.60;;;;;;5114847;28;19985;-64
2023/07/01 01:51:21;;;;;;;;;;;20.50;92.90;;;;;;5114991;28;19989;-62
2023/07/01 01:53:47;;;;;;;;;;;20.30;93.00;;;;;;5115123;28;19996;-63
2023/07/01 01:56:12;;;;;;;;;;;20.40;93.00;;;;;;5114875;28;20043;-63
2023/07/01 01:58:38;;;;;;;;;;;20.40;92.80;;;;;;5114919;28;20439;-62
2023/07/01 02:01:04;;;;;;;;;;;20.40;92.60;;;;;;5114471;28;19989;-64
2023/07/01 02:03:29;;;;;;;;;;;20.40;92.50;;;;;;5114596;28;19989;-65
2023/07/01 02:05:55;;;;;;;;;;;20.30;92.30;;;;;;5114771;28;20443;-62
2023/07/01 02:08:20;;;;;;;;;;;20.30;92.50;;;;;;5114612;28;20088;-63
2023/07/01 02:10:46;;;;;;;;;;;20.30;92.90;;;;;;5114505;28;19992;-64
2023/07/01 02:13:11;;;;;;;;;;;20.10;93.60;;;;;;5114477;28;20034;-63
2023/07/01 02:15:37;;;;;;;;;;;20.10;93.30;;;;;;5114435;28;20016;-64
2023/07/01 02:18:03;;;;;;;;;;;20.20;93.30;;;;;;5114493;28;20537;-63
2023/07/01 02:20:29;;;;;;;;;;;20.20;93.50;;;;;;5114373;28;19984;-64
2023/07/01 02:22:55;;;;;;;;;;;20.20;93.60;;;;;;5114508;28;19989;-62
2023/07/01 02:25:20;;;;;;;;;;;20.20;93.50;;;;;;5114541;28;20470;-63
2023/07/01 02:27:46;;;;;;;;;;;20.20;93.40;;;;;;5114345;28;19989;-62
2023/07/01 02:30:11;;;;;;;;;;;20.20;93.60;;;;;;5114214;28;19988;-63
2023/07/01 02:32:37;;;;;;;;;;;20.20;93.60;;;;;;5114353;28;19985;-65
2023/07/01 02:35:03;;;;;;;;;;;20.30;93.30;;;;;;5114063;28;20060;-64
2023/07/01 02:37:28;;;;;;;;;;;20.30;93.10;;;;;;5114173;28;19988;-64
2023/07/01 02:39:54;;;;;;;;;;;20.30;93.00;;;;;;5114117;28;19993;-63
2023/07/01 02:42:20;;;;;;;;;;;20.30;92.70;;;;;;5113917;28;19992;-62
2023/07/01 02:44:46;;;;;;;;;;;20.40;93.20;;;;;;5114270;28;19984;-64
2023/07/01 02:47:12;;;;;;;;;;;20.40;93.50;;;;;;5113975;28;20125;-64
2023/07/01 02:49:40;;;;;;;;;;;20.40;92.70;;;;;;5114344;28;20359;-62
2023/07/01 02:52:07;;;;;;;;;;;20.40;92.50;;;;;;5114013;28;19998;-63
2023/07/01 02:54:33;;;;;;;;;;;20.40;93.20;;;;;;5114178;28;20059;-62
2023/07/01 02:56:58;;;;;;;;;;;20.50;93.00;;;;;;5113738;28;20423;-64
2023/07/01 02:59:24;;;;;;;;;;;20.50;92.70;;;;;;5114240;28;20020;-64
2023/07/01 03:01:49;;;;;;;;;;;20.50;93.30;;;;;;5114023;28;19988;-63
2023/07/01 03:04:15;;;;;;;;;;;20.50;93.20;;;;;;5113920;28;20481;-63
2023/07/01 03:06:40;;;;;;;;;;;20.50;92.50;;;;;;5113877;28;19991;-63
2023/07/01 03:09:07;;;;;;;;;;;20.50;92.00;;;;;;5114202;28;19988;-64
2023/07/01 03:11:36;;;;;;;;;;;20.40;91.80;;;;;;5113695;28;20442;-64
2023/07/01 03:14:02;;;;;;;;;;;20.40;92.30;;;;;;5113748;28;19992;-65
2023/07/01 03:16:28;;;;;;;;;;;20.40;92.00;;;;;;5114068;28;20039;-63
2023/07/01 03:18:54;;;;;;;;;;;20.40;92.00;;;;;;5113912;28;19988;-64
2023/07/01 03:21:20;;;;;;;;;;;20.50;92.50;;;;;;5113719;28;20458;-62
2023/07/01 03:23:45;;;;;;;;;;;20.60;92.20;;;;;;5113734;28;19985;-63
2023/07/01 03:26:11;;;;;;;;;;;20.70;91.60;;;;;;5113631;28;20079;-63
2023/07/01 03:28:36;;;;;;;;;;;20.70;91.70;;;;;;5113700;28;19984;-63
2023/07/01 03:31:04;;;;;;;;;;;20.70;91.40;;;;;;5113566;28;19993;-62
2023/07/01 03:33:29;;;;;;;;;;;20.70;91.10;;;;;;5113899;28;20038;-64
2023/07/01 03:35:55;;;;;;;;;;;20.70;91.30;;;;;;5117503;28;20012;-64
2023/07/01 03:38:20;;;;;;;;;;;20.70;91.30;;;;;;5117358;28;19984;-63
2023/07/01 03:40:47;;;;;;;;;;;20.70;91.50;;;;;;5117572;28;19989;-64
2023/07/01 03:43:13;;;;;;;;;;;20.60;91.60;;;;;;5099188;28;20344;-63
2023/07/01 03:45:38;;;;;;;;;;;20.60;91.80;;;;;;5117088;28;20016;-63
2023/07/01 03:48:05;;;;;;;;;;;20.60;91.70;;;;;;5117358;28;20362;-64
2023/07/01 03:50:30;;;;;;;;;;;20.60;91.90;;;;;;5117233;28;19995;-63
2023/07/01 03:52:56;;;;;;;;;;;20.60;92.10;;;;;;5117227;28;19985;-63
2023/07/01 03:55:21;;;;;;;;;;;20.60;91.90;;;;;;5117038;28;20008;-62
2023/07/01 03:57:47;;;;;;;;;;;20.60;91.90;;;;;;5117075;28;20087;-63
2023/07/01 04:00:19;;;;;;;;;;;20.60;91.80;;;;;;5117046;28;19984;-63
2023/07/01 04:02:47;;;;;;;;;;;20.60;92.10;;;;;;5117268;28;20014;-63
2023/07/01 04:05:13;;;;;;;;;;;20.60;92.20;;;;;;5117095;28;20091;-62
2023/07/01 04:07:39;;;;;;;;;;;20.60;92.00;;;;;;5116913;28;20023;-62
2023/07/01 04:10:05;;;;;;;;;;;20.60;92.30;;;;;;5116711;28;20083;-64
2023/07/01 04:12:34;;;;;;;;;;;20.70;92.20;;;;;;5116824;28;20036;-64
2023/07/01 04:15:00;;;;;;;;;;;20.80;92.10;;;;;;5116685;28;20012;-62
2023/07/01 04:17:26;;;;;;;;;;;20.80;92.10;;;;;;5117035;28;20411;-62
2023/07/01 04:19:52;;;;;;;;;;;20.80;92.50;;;;;;5117096;28;19992;-62
2023/07/01 04:22:19;;;;;;;;;;;20.80;92.80;;;;;;5116862;28;20355;-62
2023/07/01 04:24:44;;;;;;;;;;;20.90;93.20;;;;;;5116451;28;19995;-64
2023/07/01 04:27:10;;;;;;;;;;;20.90;92.70;;;;;;5116539;28;19989;-64
2023/07/01 04:29:35;;;;;;;;;;;21.00;92.00;;;;;;5116566;28;20034;-65
2023/07/01 04:32:01;;;;;;;;;;;21.00;91.50;;;;;;5116400;28;20039;-64
2023/07/01 04:34:26;;;;;;;;;;;21.00;91.40;;;;;;5116495;28;20008;-63
2023/07/01 04:36:52;;;;;;;;;;;21.00;91.50;;;;;;5116455;28;20523;-64
2023/07/01 04:39:18;;;;;;;;;;;21.00;91.30;;;;;;5116109;28;20477;-63
2023/07/01 04:41:44;;;;;;;;;;;21.10;91.80;;;;;;5116340;28;19989;-65
2023/07/01 04:44:09;;;;;;;;;;;21.10;91.60;;;;;;5116434;28;20046;-64
2023/07/01 04:46:35;;;;;;;;;;;21.10;91.30;;;;;;5115834;28;20025;-64
2023/07/01 04:49:01;;;;;;;;;;;21.10;91.00;;;;;;5116115;28;20439;-64
2023/07/01 04:51:26;;;;;;;;;;;21.10;90.80;;;;;;5116186;28;19984;-63
2023/07/01 04:53:52;;;;;;;;;;;21.20;91.30;;;;;;5115851;28;19985;-62
2023/07/01 04:56:21;;;;;;;;;;;21.20;91.00;;;;;;5115835;28;20025;-64
2023/07/01 04:58:46;;;;;;;;;;;21.20;91.30;;;;;;5116228;28;19988;-63
2023/07/01 05:01:12;;;;;;;;;;;21.20;91.20;;;;;;5115876;28;20335;-63
2023/07/01 05:03:37;;;;;;;;;;;21.20;90.70;;;;;;5115802;28;20033;-64
2023/07/01 05:06:03;;;;;;;;;;;21.30;90.60;;;;;;5115799;28;19996;-63
2023/07/01 05:08:29;;;;;;;;;;;21.20;90.80;;;;;;5115652;28;19985;-62
2023/07/01 05:10:54;;;;;;;;;;;21.20;91.00;;;;;;5115645;28;20032;-62
2023/07/01 05:13:20;;;;;;;;;;;21.10;91.40;;;;;;5115965;28;20449;-65
2023/07/01 05:15:46;;;;;;;;;;;21.20;91.40;;;;;;5115605;28;20030;-65
2023/07/01 05:18:11;;;;;;;;;;;21.20;91.30;;;;;;5115493;28;19985;-64
2023/07/01 05:20:37;;;;;;;;;;;21.30;91.40;;;;;;5115479;28;19989;-64
2023/07/01 05:23:03;;;;;;;;;;;21.30;91.50;;;;;;5115360;28;19990;-63
2023/07/01 05:25:28;;;;;;;;;;;21.20;91.40;;;;;;5115331;28;19984;-62
2023/07/01 05:27:54;;;;;;;;;;;21.20;91.50;;;;;;5115685;28;19988;-62
2023/07/01 05:30:19;;;;;;;;;;;21.20;91.60;;;;;;5115436;28;20465;-63
2023/07/01 05:32:45;;;;;;;;;;;21.30;91.60;;;;;;5115360;28;19985;-62
2023/07/01 05:35:10;;;;;;;;;;;21.30;90.70;;;;;;5115125;28;20015;-64
2023/07/01 05:37:36;;;;;;;;;;;21.20;90.80;;;;;;5114964;28;19988;-63
2023/07/01 05:40:01;;;;;;;;;;;21.30;91.20;;;;;;5115186;28;19985;-62
2023/07/01 05:42:27;;;;;;;;;;;21.30;91.40;;;;;;5115033;28;19992;-62
2023/07/01 05:44:52;;;;;;;;;;;21.50;91.40;;;;;;5114997;28;19989;-63
2023/07/01 05:47:18;;;;;;;;;;;21.60;91.50;;;;;;5114880;28;20027;-63
2023/07/01 05:49:43;;;;;;;;;;;21.70;91.80;;;;;;5114903;28;19989;-63
2023/07/01 05:52:09;;;;;;;;;;;21.80;91.40;;;;;;5114967;28;19993;-62
2023/07/01 05:54:34;;;;;;;;;;;21.90;91.60;;;;;;5114891;28;20475;-63
2023/07/01 05:57:00;;;;;;;;;;;21.90;90.60;;;;;;5114148;28;20001;-64
2023/07/01 05:59:26;;;;;;;;;;;22.10;92.00;;;;;;5114778;28;20046;-64
2023/07/01 06:01:51;;;;;;;;;;;22.10;91.60;;;;;;5114943;28;19989;-63
2023/07/01 06:04:17;;;;;;;;;;;22.30;91.70;;;;;;5114748;28;20450;-62
2023/07/01 06:06:42;;;;;;;;;;;22.50;89.90;;;;;;5114305;28;20012;-63
2023/07/01 06:09:09;;;;;;;;;;;22.60;90.00;;;;;;5114588;28;19992;-62
2023/07/01 06:11:35;;;;;;;;;;;22.80;90.10;;;;;;5114686;28;20436;-63
2023/07/01 06:14:01;;;;;;;;;;;22.80;89.40;;;;;;5114458;28;19985;-62
2023/07/01 06:16:27;;;;;;;;;;;22.90;87.30;;;;;;5114486;28;20085;-63
2023/07/01 06:18:52;;;;;;;;;;;23.00;85.70;;;;;;5114476;28;20474;-64
2023/07/01 06:21:19;;;;;;;;;;;23.10;85.20;;;;;;5114205;28;20103;-64
2023/07/01 06:23:45;;;;;;;;;;;23.10;85.20;;;;;;5114435;28;19988;-62
2023/07/01 06:26:10;;;;;;;;;;;23.20;85.20;;;;;;5114440;28;19985;-64
2023/07/01 06:28:36;;;;;;;;;;;23.30;89.30;;;;;;5114282;28;19985;-63
2023/07/01 06:31:01;;;;;;;;;;;23.50;84.70;;;;;;5114225;28;19988;-64
2023/07/01 06:33:27;;;;;;;;;;;23.60;85.50;;;;;;5114373;28;19985;-62
2023/07/01 06:35:52;;;;;;;;;;;23.80;85.80;;;;;;5113990;28;20477;-65
2023/07/01 06:38:18;;;;;;;;;;;24.00;83.60;;;;;;5114113;28;20100;-64
2023/07/01 06:40:43;;;;;;;;;;;24.10;77.80;;;;;;5114214;28;20019;-64
2023/07/01 06:43:09;;;;;;;;;;;24.20;82.10;;;;;;5114263;28;20038;-64
2023/07/01 06:45:36;;;;;;;;;;;24.40;78.70;;;;;;5113828;28;20016;-63
2023/07/01 06:48:01;;;;;;;;;;;24.50;79.60;;;;;;5114195;28;19989;-64
2023/07/01 06:50:27;;;;;;;;;;;24.70;75.30;;;;;;5113902;28;20372;-64
2023/07/01 06:52:52;;;;;;;;;;;24.80;72.50;;;;;;5114019;28;19985;-63
2023/07/01 06:55:18;;;;;;;;;;;24.90;74.60;;;;;;5114121;28;20009;-64
2023/07/01 06:57:44;;;;;;;;;;;25.20;73.60;;;;;;5113964;28;20001;-62
2023/07/01 07:00:11;;;;;;;;;;;25.40;70.00;;;;;;5113954;28;20485;-63
2023/07/01 07:02:36;;;;;;;;;;;25.60;71.20;;;;;;5114001;28;20073;-64
2023/07/01 07:05:03;;;;;;;;;;;25.80;69.10;;;;;;5114112;28;20454;-63
2023/07/01 07:07:28;;;;;;;;;;;26.10;69.80;;;;;;5114221;28;19989;-63
2023/07/01 07:09:54;;;;;;;;;;;26.40;68.00;;;;;;5116720;28;19991;-62
2023/07/01 07:12:20;;;;;;;;;;;26.60;66.10;;;;;;5117989;28;20042;-64
2023/07/01 07:14:45;;;;;;;;;;;26.60;66.20;;;;;;5117879;28;20009;-64
2023/07/01 07:17:11;;;;;;;;;;;26.60;61.60;;;;;;5117838;28;20071;-64
2023/07/01 07:19:37;;;;;;;;;;;26.40;62.10;;;;;;5117842;28;20404;-63
2023/07/01 07:22:03;;;;;;;;;;;26.20;63.50;;;;;;5117857;28;19985;-63
2023/07/01 07:24:28;;;;;;;;;;;26.20;61.20;;;;;;5118056;28;20517;-64
2023/07/01 07:26:55;;;;;;;;;;;26.40;65.60;;;;;;5117755;28;19984;-64
2023/07/01 07:29:21;;;;;;;;;;;26.70;69.10;;;;;;5117953;28;19996;-63
2023/07/01 07:31:47;;;;;;;;;;;26.90;61.80;;;;;;5117466;28;19988;-64
2023/07/01 07:34:12;;;;;;;;;;;27.10;57.60;;;;;;5117460;28;19991;-64
2023/07/01 07:36:38;;;;;;;;;;;27.10;56.30;;;;;;5117853;28;19992;-63
2023/07/01 07:39:04;;;;;;;;;;;27.30;59.50;;;;;;5117490;28;19985;-64
2023/07/01 07:41:29;;;;;;;;;;;27.50;62.30;;;;;;5117443;28;19996;-62
2023/07/01 07:43:55;;;;;;;;;;;27.60;61.50;;;;;;5117423;28;19985;-63
2023/07/01 07:46:20;;;;;;;;;;;27.80;62.80;;;;;;5117232;28;20490;-65
2023/07/01 07:48:46;;;;;;;;;;;28.20;59.40;;;;;;5117319;28;20446;-62
2023/07/01 07:51:12;;;;;;;;;;;29.40;55.70;;;;;;5117241;28;20347;-64
2023/07/01 07:53:38;;;;;;;;;;;30.80;57.40;;;;;;5117145;28;19985;-64
2023/07/01 07:56:04;;;;;;;;;;;32.10;54.50;;;;;;5116961;28;20126;-62
2023/07/01 07:58:29;;;;;;;;;;;33.50;54.50;;;;;;5117448;28;20024;-63
2023/07/01 08:00:55;;;;;;;;;;;34.50;51.40;;;;;;5117090;28;19984;-63
2023/07/01 08:03:21;;;;;;;;;;;35.10;49.80;;;;;;5117037;28;20038;-65
2023/07/01 08:05:48;;;;;;;;;;;35.80;47.70;;;;;;5116943;28;20084;-62
2023/07/01 08:08:14;;;;;;;;;;;36.70;44.60;;;;;;5116975;28;20032;-64
2023/07/01 08:10:45;;;;;;;;;;;37.10;43.50;;;;;;5116858;28;20429;-62
2023/07/01 08:13:14;;;;;;;;;;;37.50;44.00;;;;;;5116982;28;20038;-64
2023/07/01 08:15:40;;;;;;;;;;;37.70;42.90;;;;;;5116781;28;20012;-63
2023/07/01 08:18:06;;;;;;;;;;;37.50;41.60;;;;;;5116397;28;20075;-63
2023/07/01 08:20:32;;;;;;;;;;;37.30;42.30;;;;;;5116346;28;20028;-64
2023/07/01 08:22:57;;;;;;;;;;;37.50;40.70;;;;;;5116854;28;19985;-63
2023/07/01 08:25:23;;;;;;;;;;;37.50;41.30;;;;;;5116615;28;19985;-63
2023/07/01 08:27:48;;;;;;;;;;;37.80;43.70;;;;;;5116809;28;20023;-63
2023/07/01 08:30:14;;;;;;;;;;;37.70;41.20;;;;;;5116830;28;20351;-63
2023/07/01 08:32:40;;;;;;;;;;;36.90;40.00;;;;;;5116261;28;20142;-64
2023/07/01 08:35:06;;;;;;;;;;;37.20;41.70;;;;;;5116353;28;20442;-62
2023/07/01 08:37:31;;;;;;;;;;;37.10;42.10;;;;;;5116316;28;20079;-64
2023/07/01 08:39:57;;;;;;;;;;;36.60;42.70;;;;;;5116367;28;19990;-63
2023/07/01 08:42:27;;;;;;;;;;;36.10;43.80;;;;;;5116275;28;19984;-64
2023/07/01 08:44:53;;;;;;;;;;;35.80;43.10;;;;;;5116732;28;19992;-64
2023/07/01 08:47:19;;;;;;;;;;;35.30;40.40;;;;;;5115906;28;20089;-64
2023/07/01 08:49:46;;;;;;;;;;;34.60;42.00;;;;;;5116430;28;20401;-63
2023/07/01 08:52:13;;;;;;;;;;;34.50;42.70;;;;;;5116125;28;19985;-63
2023/07/01 08:54:39;;;;;;;;;;;34.20;43.40;;;;;;5116072;28;20015;-64
2023/07/01 08:57:05;;;;;;;;;;;33.60;43.10;;;;;;5115861;28;20008;-62
2023/07/01 08:59:31;;;;;;;;;;;33.20;42.80;;;;;;5115934;28;19985;-62
2023/07/01 09:01:58;;;;;;;;;;;33.30;44.30;;;;;;5115696;28;19984;-63
2023/07/01 09:04:24;;;;;;;;;;;33.50;43.60;;;;;;5115757;28;20013;-62
2023/07/01 09:06:49;;;;;;;;;;;33.60;43.60;;;;;;5115964;28;20083;-63
2023/07/01 09:09:15;;;;;;;;;;;33.90;43.70;;;;;;5115735;28;19984;-64
2023/07/01 09:11:40;;;;;;;;;;;34.00;44.10;;;;;;5115768;28;20537;-63
2023/07/01 09:14:06;;;;;;;;;;;34.20;47.50;;;;;;5115545;28;20460;-64
2023/07/01 09:16:35;;;;;;;;;;;34.10;46.00;;;;;;5115363;28;20015;-63
2023/07/01 09:19:04;;;;;;;;;;;33.60;44.50;;;;;;5115428;28;19989;-64
2023/07/01 09:21:32;;;;;;;;;;;33.30;44.70;;;;;;5115537;28;20405;-63
2023/07/01 09:23:58;;;;;;;;;;;33.50;46.20;;;;;;5115753;28;19989;-61
2023/07/01 09:26:24;;;;;;;;;;;33.80;47.90;;;;;;5115392;28;19985;-64
2023/07/01 09:28:49;;;;;;;;;;;33.70;43.80;;;;;;5115128;28;19996;-63
2023/07/01 09:31:15;;;;;;;;;;;33.50;45.50;;;;;;5114897;28;20079;-62
2023/07/01 09:34:01;;;;;;;;;;;33.40;46.00;;;;;;5115293;28;19985;-63
2023/07/01 09:36:30;;;;;;;;;;;33.10;43.50;;;;;;5114420;28;20405;-64
2023/07/01 09:38:56;;;;;;;;;;;32.70;44.00;;;;;;5115268;28;19985;-65
2023/07/01 09:41:24;;;;;;;;;;;32.60;45.20;;;;;;5115307;28;19989;-62
2023/07/01 09:43:50;;;;;;;;;;;32.40;45.00;;;;;;5115048;28;19992;-63
2023/07/01 09:46:15;;;;;;;;;;;32.10;44.60;;;;;;5114929;28;20027;-63
2023/07/01 09:48:53;;;;;;;;;;;31.80;47.30;;;;;;5114987;28;19991;-62
2023/07/01 09:51:19;;;;;;;;;;;31.50;45.30;;;;;;5115210;28;19992;-64
2023/07/01 09:53:45;;;;;;;;;;;31.40;49.00;;;;;;5115125;28;19993;-63
2023/07/01 09:56:13;;;;;;;;;;;31.30;47.80;;;;;;5114629;28;20016;-64
2023/07/01 09:58:38;;;;;;;;;;;31.20;47.60;;;;;;5114731;28;20016;-64
2023/07/01 10:01:04;;;;;;;;;;;30.90;48.80;;;;;;5114796;28;20027;-64
2023/07/01 10:03:30;;;;;;;;;;;30.60;47.60;;;;;;5114922;28;19999;-63
2023/07/01 10:05:55;;;;;;;;;;;30.50;49.30;;;;;;5114812;28;19985;-63
2023/07/01 10:08:21;;;;;;;;;;;30.40;49.40;;;;;;5114661;28;19984;-63
2023/07/01 10:10:57;;;;;;;;;;;30.40;50.80;;;;;;5114564;28;19985;-62
2023/07/01 10:13:22;;;;;;;;;;;30.50;50.30;;;;;;5114411;28;19995;-63
2023/07/01 10:15:48;;;;;;;;;;;30.50;49.40;;;;;;5114468;28;20009;-64
2023/07/01 10:18:21;;;;;;;;;;;30.50;49.60;;;;;;5114330;28;20027;-64
2023/07/01 10:20:46;;;;;;;;;;;30.30;50.30;;;;;;5114757;28;19995;-64
2023/07/01 10:23:12;;;;;;;;;;;30.10;48.20;;;;;;5114301;28;19992;-63
2023/07/01 10:25:39;;;;;;;;;;;29.40;49.40;;;;;;5114358;28;20020;-63
2023/07/01 10:28:08;;;;;;;;;;;29.20;49.00;;;;;;5114187;28;20024;-63
2023/07/01 10:30:46;;;;;;;;;;;29.10;48.40;;;;;;5114619;28;20020;-64
2023/07/01 10:33:33;;;;;;;;;;;28.90;49.10;;;;;;5114307;28;20033;-64
2023/07/01 10:36:04;;;;;;;;;;;28.70;48.40;;;;;;5114161;28;20012;-62
2023/07/01 10:38:30;;;;;;;;;;;28.60;48.70;;;;;;5114192;28;19988;-64
2023/07/01 10:40:56;;;;;;;;;;;28.30;49.80;;;;;;5114003;28;19989;-64
2023/07/01 10:43:29;;;;;;;;;;;28.10;49.70;;;;;;5113740;28;19985;-64
2023/07/01 10:46:08;;;;;;;;;;;28.00;50.30;;;;;;5113933;28;20097;-62
2023/07/01 10:48:38;;;;;;;;;;;27.90;50.40;;;;;;5114289;28;19988;-64
2023/07/01 10:51:07;;;;;;;;;;;27.60;51.50;;;;;;5114229;28;19985;-64
2023/07/01 10:53:57;;;;;;;;;;;27.50;50.90;;;;;;5114352;28;20038;-63
2023/07/01 10:56:23;;;;;;;;;;;27.30;51.90;;;;;;5100593;28;20024;-62
2023/07/01 10:59:07;;;;;;;;;;;27.00;54.10;;;;;;5113919;28;20405;-62
2023/07/01 11:01:40;;;;;;;;;;;26.70;55.20;;;;;;5114105;28;19985;-63
2023/07/01 11:04:06;;;;;;;;;;;26.10;56.40;;;;;;5114306;28;20423;-63
2023/07/01 11:06:44;;;;;;;;;;;25.80;57.30;;;;;;5113943;28;20028;-63
2023/07/01 11:09:10;;;;;;;;;;;25.80;58.40;;;;;;5114154;28;20458;-63
2023/07/01 11:11:35;;;;;;;;;;;26.00;59.10;;;;;;5113527;28;19996;-62
2023/07/01 11:14:01;;;;;;;;;;;26.10;58.70;;;;;;5114148;28;19995;-64
2023/07/01 11:16:27;;;;;;;;;;;26.30;58.50;;;;;;5113831;28;20009;-63
2023/07/01 11:18:53;;;;;;;;;;;26.40;61.90;;;;;;5114015;28;19995;-64
2023/07/01 11:21:20;;;;;;;;;;;26.20;60.80;;;;;;5113770;28;19991;-64
2023/07/01 11:23:52;;;;;;;;;;;26.00;64.70;;;;;;5114088;28;19989;-61
2023/07/01 11:26:21;;;;;;;;;;;25.90;61.60;;;;;;5113583;28;20464;-64
2023/07/01 11:28:47;;;;;;;;;;;26.00;62.20;;;;;;5113675;28;20052;-63
2023/07/01 11:31:18;;;;;;;;;;;26.10;61.00;;;;;;5113739;28;20486;-63
2023/07/01 11:33:45;;;;;;;;;;;26.20;63.00;;;;;;5113765;28;19989;-63
2023/07/01 11:36:14;;;;;;;;;;;26.30;63.50;;;;;;5113539;28;20481;-63
2023/07/01 11:38:46;;;;;;;;;;;26.30;64.90;;;;;;5113949;28;19996;-64
2023/07/01 11:41:13;;;;;;;;;;;26.30;66.00;;;;;;5113405;28;20346;-63
2023/07/01 11:43:39;;;;;;;;;;;26.30;63.30;;;;;;5113768;28;19991;-63
2023/07/01 11:46:04;;;;;;;;;;;26.40;65.20;;;;;;5113551;28;20417;-63
2023/07/01 11:48:31;;;;;;;;;;;26.30;65.60;;;;;;5113861;28;20064;-62
2023/07/01 11:50:56;;;;;;;;;;;26.40;67.00;;;;;;5113540;28;20034;-64
2023/07/01 11:53:22;;;;;;;;;;;26.40;63.80;;;;;;5113422;28;19984;-63
2023/07/01 11:55:47;;;;;;;;;;;26.40;64.10;;;;;;5115763;28;20551;-62
2023/07/01 11:58:32;;;;;;;;;;;26.50;66.20;;;;;;5117100;28;19985;-64
2023/07/01 12:00:58;;;;;;;;;;;26.40;67.50;;;;;;5117445;28;19988;-64
2023/07/01 12:03:24;;;;;;;;;;;26.20;66.70;;;;;;5116886;28;20393;-64
2023/07/01 12:05:50;;;;;;;;;;;26.10;65.30;;;;;;5117105;28;20499;-63
2023/07/01 12:08:16;;;;;;;;;;;26.10;62.90;;;;;;5116859;28;19985;-64
2023/07/01 12:10:41;;;;;;;;;;;26.30;63.40;;;;;;5116917;28;20121;-63
2023/07/01 12:13:07;;;;;;;;;;;26.50;65.80;;;;;;5116960;28;20431;-64
2023/07/01 12:15:33;;;;;;;;;;;26.60;66.50;;;;;;5116763;28;20019;-64
2023/07/01 12:18:17;;;;;;;;;;;26.70;68.60;;;;;;5117106;28;19995;-64
2023/07/01 12:20:42;;;;;;;;;;;26.80;67.90;;;;;;5116730;28;20040;-62
2023/07/01 12:23:08;;;;;;;;;;;26.80;70.50;;;;;;5116685;28;20067;-64
2023/07/01 12:25:33;;;;;;;;;;;26.90;64.00;;;;;;5116559;28;19985;-62
2023/07/01 12:27:59;;;;;;;;;;;26.90;63.90;;;;;;5116938;28;20085;-63
2023/07/01 12:30:25;;;;;;;;;;;26.90;63.60;;;;;;5116695;28;20434;-62
2023/07/01 12:32:50;;;;;;;;;;;26.90;65.10;;;;;;5116497;28;20351;-64
2023/07/01 12:35:17;;;;;;;;;;;27.00;64.90;;;;;;5116571;28;20111;-63
2023/07/01 12:37:44;;;;;;;;;;;27.00;63.40;;;;;;5098747;28;20418;-64
2023/07/01 12:40:11;;;;;;;;;;;27.00;65.20;;;;;;5116593;28;19992;-62
2023/07/01 12:42:37;;;;;;;;;;;27.00;63.50;;;;;;5116509;28;19985;-63
2023/07/01 12:45:03;;;;;;;;;;;27.20;62.60;;;;;;5116482;28;19995;-63
2023/07/01 12:47:28;;;;;;;;;;;27.20;62.00;;;;;;5116220;28;19997;-63
2023/07/01 12:49:57;;;;;;;;;;;27.30;62.60;;;;;;5115435;28;21539;-63
2023/07/01 12:52:23;;;;;;;;;;;27.30;63.40;;;;;;5115963;28;19991;-64
2023/07/01 12:54:48;;;;;;;;;;;27.50;62.20;;;;;;5116030;28;20104;-64
2023/07/01 12:57:15;;;;;;;;;;;27.60;63.20;;;;;;5115863;28;20099;-63
2023/07/01 12:59:44;;;;;;;;;;;27.70;64.10;;;;;;5116102;28;19985;-63
2023/07/01 13:02:11;;;;;;;;;;;27.90;62.60;;;;;;5116263;28;20418;-64
2023/07/01 13:04:37;;;;;;;;;;;28.30;59.70;;;;;;5115873;28;20413;-64
2023/07/01 13:07:04;;;;;;;;;;;28.50;60.00;;;;;;5115937;28;20096;-63
2023/07/01 13:09:29;;;;;;;;;;;28.60;64.30;;;;;;5115820;28;19988;-62
2023/07/01 13:11:55;;;;;;;;;;;28.70;58.50;;;;;;5115736;28;20079;-65
2023/07/01 13:14:22;;;;;;;;;;;28.70;61.70;;;;;;5115825;28;20028;-63
2023/07/01 13:16:48;;;;;;;;;;;28.80;58.40;;;;;;5115864;28;20013;-65
2023/07/01 13:19:14;;;;;;;;;;;28.90;60.40;;;;;;5115585;28;20007;-64
2023/07/01 13:21:40;;;;;;;;;;;29.10;60.40;;;;;;5115387;28;20167;-64
2023/07/01 13:24:08;;;;;;;;;;;29.30;62.00;;;;;;5115577;28;19985;-65
2023/07/01 13:26:34;;;;;;;;;;;29.40;58.60;;;;;;5115637;28;19994;-62
2023/07/01 13:28:59;;;;;;;;;;;29.50;58.80;;;;;;5115364;28;20434;-64
2023/07/01 13:31:25;;;;;;;;;;;29.70;59.60;;;;;;5115649;28;19988;-65
2023/07/01 13:33:57;;;;;;;;;;;29.80;58.30;;;;;;5115428;28;20037;-64
2023/07/01 13:36:22;;;;;;;;;;;29.60;58.90;;;;;;5114958;28;20013;-64
2023/07/01 13:38:49;;;;;;;;;;;29.80;59.10;;;;;;5115327;28;19991;-64
2023/07/01 13:41:16;;;;;;;;;;;30.00;59.60;;;;;;5115207;28;19985;-63
2023/07/01 13:43:41;;;;;;;;;;;30.30;61.90;;;;;;5115390;28;20034;-62
2023/07/01 13:46:07;;;;;;;;;;;30.60;60.10;;;;;;5115079;28;20024;-64
2023/07/01 13:48:33;;;;;;;;;;;30.80;57.90;;;;;;5114932;28;20393;-62
2023/07/01 13:50:59;;;;;;;;;;;30.80;58.10;;;;;;5115080;28;19989;-63
2023/07/01 13:53:25;;;;;;;;;;;30.60;58.20;;;;;;5114975;28;20354;-62
2023/07/01 13:55:51;;;;;;;;;;;30.60;59.60;;;;;;5114716;28;20054;-62
2023/07/01 13:58:16;;;;;;;;;;;30.60;57.30;;;;;;5114813;28;19996;-64
2023/07/01 14:00:43;;;;;;;;;;;30.80;55.60;;;;;;5115136;28;19989;-63
2023/07/01 14:03:20;;;;;;;;;;;30.80;56.80;;;;;;5114811;28;19984;-64
2023/07/01 14:05:46;;;;;;;;;;;31.00;56.80;;;;;;5114613;28;20346;-63
2023/07/01 14:08:12;;;;;;;;;;;31.20;56.60;;;;;;5114984;28;19988;-63
2023/07/01 14:10:39;;;;;;;;;;;31.10;55.10;;;;;;5114831;28;20122;-64
2023/07/01 14:13:06;;;;;;;;;;;31.30;58.30;;;;;;5114909;28;20354;-63